createdAt,value
2022-12-09T00:01:25.752Z,103312.94
2022-12-09T00:03:55.542Z,103310.44
2022-12-09T00:06:26.101Z,103303.56
2022-12-09T00:08:54.995Z,103307.81
2022-12-09T00:11:23.737Z,103313.00
2022-12-09T00:13:53.309Z,103314.69
2022-12-09T00:16:22.571Z,103312.88
2022-12-09T00:18:50.782Z,103314.72
2022-12-09T00:21:22.705Z,103306.06
2022-12-09T00:23:52.115Z,103295.78
2022-12-09T00:26:21.702Z,103289.84
2022-12-09T00:28:50.892Z,103291.47
2022-12-09T00:31:20.592Z,103297.47
2022-12-09T00:33:48.254Z,103288.81
2022-12-09T00:36:19.622Z,103278.53
2022-12-09T00:38:47.914Z,103287.91
2022-12-09T00:41:16.512Z,103280.41
2022-12-09T00:43:46.321Z,103283.78
2022-12-09T00:46:15.281Z,103282.97
2022-12-09T00:48:43.794Z,103277.88
2022-12-09T00:51:18.121Z,103275.38
2022-12-09T00:53:47.772Z,103283.06
2022-12-09T00:56:16.053Z,103281.28
2022-12-09T00:58:43.853Z,103278.84
2022-12-09T01:01:11.380Z,103273.72
2022-12-09T01:03:39.692Z,103283.88
2022-12-09T01:06:18.080Z,103273.53
2022-12-09T01:08:47.102Z,103277.84
2022-12-09T01:11:24.849Z,103272.69
2022-12-09T01:13:53.169Z,103276.16
2022-12-09T01:16:22.963Z,103274.44
2022-12-09T01:18:51.759Z,103270.91
2022-12-09T01:21:19.786Z,103262.50
2022-12-09T01:23:47.427Z,103266.84
2022-12-09T01:26:15.034Z,103265.03
2022-12-09T01:28:42.691Z,103256.47
2022-12-09T01:31:18.905Z,103263.31
2022-12-09T01:33:47.488Z,103258.09
2022-12-09T01:36:18.863Z,103261.53
2022-12-09T01:38:48.004Z,103253.13
2022-12-09T01:41:17.597Z,103270.16
2022-12-09T01:43:45.965Z,103268.44
2022-12-09T01:46:15.161Z,103259.00
2022-12-09T01:48:46.753Z,103255.53
2022-12-09T01:51:18.886Z,103262.50
2022-12-09T01:53:50.215Z,103249.66
2022-12-09T01:56:29.353Z,103258.28
2022-12-09T01:59:02.582Z,103259.06
2022-12-09T02:01:30.156Z,103266.78
2022-12-09T02:03:58.299Z,103256.50
2022-12-09T02:06:26.352Z,103268.44
2022-12-09T02:08:55.303Z,103265.81
2022-12-09T02:11:51.531Z,103265.03
2022-12-09T02:14:28.684Z,103262.50
2022-12-09T02:17:30.716Z,103263.44
2022-12-09T02:20:21.603Z,103260.00
2022-12-09T02:23:05.040Z,103266.88
2022-12-09T02:25:43.980Z,103265.06
2022-12-09T02:31:47.273Z,103253.94
2022-12-09T02:34:16.697Z,103249.75
2022-12-09T02:37:15.679Z,103254.91
2022-12-09T02:39:54.611Z,103248.88
2022-12-09T02:42:28.676Z,103252.28
2022-12-09T02:44:58.515Z,103241.13
2022-12-09T02:47:30.004Z,103244.59
2022-12-09T02:50:03.127Z,103230.91
2022-12-09T02:52:34.067Z,103233.47
2022-12-09T02:55:05.012Z,103235.06
2022-12-09T02:57:35.169Z,103233.34
2022-12-09T03:00:06.870Z,103228.91
2022-12-09T03:02:38.127Z,103230.88
2022-12-09T03:05:14.137Z,103248.03
2022-12-09T03:08:14.561Z,103250.59
2022-12-09T03:11:02.911Z,103252.28
2022-12-09T03:13:37.737Z,103251.47
2022-12-09T03:16:36.754Z,103247.19
2022-12-09T03:19:06.579Z,103242.88
2022-12-09T03:21:38.375Z,103246.25
2022-12-09T03:24:10.455Z,103247.94
2022-12-09T03:26:39.776Z,103249.56
2022-12-09T03:29:12.140Z,103251.22
2022-12-09T03:31:40.502Z,103253.78
2022-12-09T03:34:11.525Z,103252.97
2022-12-09T03:36:41.616Z,103258.09
2022-12-09T03:39:13.658Z,103259.88
2022-12-09T03:41:47.703Z,103259.00
2022-12-09T03:44:44.309Z,103249.50
2022-12-09T03:47:12.135Z,103266.75
2022-12-09T03:49:41.181Z,103268.44
2022-12-09T03:52:16.835Z,103273.53
2022-12-09T03:54:54.083Z,103278.59
2022-12-09T03:57:23.223Z,103274.41
2022-12-09T03:59:53.348Z,103269.34
2022-12-09T04:02:21.526Z,103271.00
2022-12-09T04:04:49.556Z,103268.41
2022-12-09T04:07:17.708Z,103261.50
2022-12-09T04:09:45.650Z,103253.78
2022-12-09T04:12:13.415Z,103248.75
2022-12-09T04:14:41.117Z,103249.75
2022-12-09T04:17:08.681Z,103242.84
2022-12-09T04:19:36.980Z,103240.22
2022-12-09T04:22:05.525Z,103238.59
2022-12-09T04:24:33.719Z,103244.50
2022-12-09T04:27:01.819Z,103235.88
2022-12-09T04:29:29.699Z,103242.84
2022-12-09T04:31:58.120Z,103252.28
2022-12-09T04:34:31.463Z,103250.59
2022-12-09T04:37:20.293Z,103253.97
2022-12-09T04:39:47.943Z,103247.94
2022-12-09T04:42:15.945Z,103244.41
2022-12-09T04:44:43.894Z,103241.84
2022-12-09T04:47:11.928Z,103244.50
2022-12-09T04:49:40.848Z,103250.50
2022-12-09T04:52:10.657Z,103248.88
2022-12-09T04:54:39.813Z,103259.16
2022-12-09T04:57:09.796Z,103259.13
2022-12-09T04:59:38.252Z,103249.59
2022-12-09T05:02:07.129Z,103235.22
2022-12-09T05:04:35.467Z,103250.59
2022-12-09T05:07:04.224Z,103251.47
2022-12-09T05:09:32.399Z,103260.03
2022-12-09T05:12:00.609Z,103257.44
2022-12-09T05:14:28.724Z,103265.13
2022-12-09T05:16:57.490Z,103258.31
2022-12-09T05:19:25.755Z,103267.72
2022-12-09T05:24:37.111Z,103266.91
2022-12-09T05:27:06.554Z,103254.84
2022-12-09T05:29:35.137Z,103263.34
2022-12-09T05:32:03.682Z,103261.75
2022-12-09T05:34:31.992Z,103267.72
2022-12-09T05:37:00.592Z,103272.88
2022-12-09T05:39:31.025Z,103277.09
2022-12-09T05:41:59.417Z,103282.28
2022-12-09T05:44:27.935Z,103287.38
2022-12-09T05:47:01.522Z,103278.84
2022-12-09T05:49:30.750Z,103281.41
2022-12-09T05:52:06.809Z,103290.78
2022-12-09T05:54:35.527Z,103294.19
2022-12-09T05:57:06.644Z,103298.53
2022-12-09T05:59:36.592Z,103295.03
2022-12-09T06:02:09.777Z,103291.69
2022-12-09T06:04:39.272Z,103294.25
2022-12-09T06:07:07.975Z,103296.84
2022-12-09T06:09:38.535Z,103307.00
2022-12-09T06:12:07.232Z,103311.31
2022-12-09T06:14:35.473Z,103308.78
2022-12-09T06:17:04.788Z,103297.63
2022-12-09T06:19:32.894Z,103302.72
2022-12-09T06:24:46.234Z,103294.88
2022-12-09T06:27:14.614Z,103291.56
2022-12-09T06:29:42.944Z,103288.81
2022-12-09T06:32:11.549Z,103287.16
2022-12-09T06:34:40.029Z,103287.25
2022-12-09T06:37:08.812Z,103283.81
2022-12-09T06:39:38.056Z,103281.28
2022-12-09T06:42:07.371Z,103288.06
2022-12-09T06:44:37.192Z,103283.75
2022-12-09T06:47:06.837Z,103299.88
2022-12-09T06:49:34.729Z,103294.09
2022-12-09T06:52:03.857Z,103288.06
2022-12-09T06:54:32.171Z,103288.97
2022-12-09T06:57:00.690Z,103286.31
2022-12-09T06:59:28.739Z,103281.19
2022-12-09T07:01:56.914Z,103281.94
2022-12-09T07:04:24.915Z,103275.94
2022-12-09T07:06:53.501Z,103273.25
2022-12-09T07:09:22.944Z,103267.88
2022-12-09T07:11:52.149Z,103264.28
2022-12-09T07:14:20.892Z,103271.09
2022-12-09T07:16:49.781Z,103263.25
2022-12-09T07:19:20.148Z,103258.50
2022-12-09T07:21:50.205Z,103263.78
2022-12-09T07:24:20.467Z,103249.09
2022-12-09T07:26:49.262Z,103244.94
2022-12-09T07:29:21.920Z,103239.84
2022-12-09T07:31:51.504Z,103252.91
2022-12-09T07:34:20.193Z,103239.06
2022-12-09T07:36:48.860Z,103243.84
2022-12-09T07:39:22.432Z,103233.88
2022-12-09T07:41:59.692Z,103224.56
2022-12-09T07:44:51.006Z,103230.47
2022-12-09T07:47:19.783Z,103228.78
2022-12-09T07:49:47.806Z,103212.97
2022-12-09T07:52:16.915Z,103212.03
2022-12-09T07:54:45.861Z,103205.50
2022-12-09T07:57:15.459Z,103191.97
2022-12-09T07:59:44.076Z,103199.56
2022-12-09T08:02:11.913Z,103205.88
2022-12-09T08:04:40.451Z,103195.78
2022-12-09T08:09:50.579Z,103189.88
2022-12-09T08:12:18.976Z,103189.31
2022-12-09T08:14:47.611Z,103186.06
2022-12-09T08:17:15.726Z,103181.91
2022-12-09T08:19:47.541Z,103165.94
2022-12-09T08:22:16.651Z,103172.56
2022-12-09T08:24:44.823Z,103166.56
2022-12-09T08:27:18.530Z,103157.78
2022-12-09T08:29:50.969Z,103138.44
2022-12-09T08:32:23.250Z,103132.94
2022-12-09T08:37:54.008Z,103144.41
2022-12-09T08:40:24.656Z,103151.38
2022-12-09T08:42:53.072Z,103139.16
2022-12-09T08:45:21.317Z,103139.34
2022-12-09T08:47:52.485Z,103140.13
2022-12-09T08:50:20.685Z,103129.38
2022-12-09T08:52:48.603Z,103123.25
2022-12-09T08:55:17.711Z,103119.16
2022-12-09T08:57:47.073Z,103115.16
2022-12-09T09:00:16.228Z,103098.22
2022-12-09T09:02:44.751Z,103086.47
2022-12-09T09:05:13.376Z,103097.81
2022-12-09T09:07:42.170Z,103097.31
2022-12-09T09:10:11.750Z,103084.16
2022-12-09T09:12:44.020Z,103083.81
2022-12-09T09:15:14.296Z,103083.66
2022-12-09T09:17:49.883Z,103088.78
2022-12-09T09:20:43.699Z,103072.66
2022-12-09T09:23:17.111Z,103057.59
2022-12-09T09:25:46.432Z,103052.13
2022-12-09T09:28:25.986Z,103047.56
2022-12-09T09:31:02.503Z,103051.03
2022-12-09T09:33:30.994Z,103049.41
2022-12-09T09:36:05.545Z,103044.97
2022-12-09T09:38:39.556Z,103049.22
2022-12-09T09:41:26.455Z,103045.75
2022-12-09T09:43:56.342Z,103039.28
2022-12-09T09:47:16.069Z,103036.69
2022-12-09T09:49:53.739Z,103033.72
2022-12-09T09:52:28.945Z,103031.41
2022-12-09T09:54:57.892Z,103036.03
2022-12-09T09:57:47.167Z,103023.41
2022-12-09T10:00:31.778Z,103039.06
2022-12-09T10:03:22.903Z,103033.53
2022-12-09T10:05:56.566Z,103037.75
2022-12-09T10:08:34.720Z,103028.78
2022-12-09T10:11:19.840Z,103026.00
2022-12-09T10:14:07.032Z,103028.94
2022-12-09T10:17:12.518Z,103026.59
2022-12-09T10:19:47.955Z,103013.63
2022-12-09T10:22:35.308Z,103024.22
2022-12-09T10:25:29.182Z,103005.88
2022-12-09T10:28:30.767Z,103014.19
2022-12-09T10:33:51.486Z,103009.41
2022-12-09T10:36:30.808Z,103009.41
2022-12-09T10:39:03.779Z,103000.22
2022-12-09T10:42:10.519Z,102993.13
2022-12-09T10:44:41.284Z,102985.66
2022-12-09T10:47:30.096Z,102991.34
2022-12-09T10:50:00.649Z,102993.78
2022-12-09T10:52:47.395Z,103002.13
2022-12-09T10:55:46.212Z,102991.91
2022-12-09T10:58:19.749Z,102999.25
2022-12-09T11:01:10.468Z,102999.56
2022-12-09T11:03:49.863Z,102982.03
2022-12-09T11:06:30.489Z,102973.53
2022-12-09T11:09:02.039Z,102966.84
2022-12-09T11:11:51.171Z,102967.31
2022-12-09T11:14:36.724Z,102968.25
2022-12-09T11:17:23.426Z,102980.59
2022-12-09T11:19:53.297Z,102971.59
2022-12-09T11:22:42.641Z,102973.44
2022-12-09T11:25:17.427Z,102972.13
2022-12-09T11:28:07.347Z,102966.25
2022-12-09T11:31:19.939Z,102968.31
2022-12-09T11:33:49.179Z,102949.44
2022-12-09T11:36:26.358Z,102946.47
2022-12-09T11:39:29.683Z,102961.84
2022-12-09T11:42:18.906Z,102954.22
2022-12-09T11:45:02.191Z,102949.81
2022-12-09T11:48:13.623Z,102949.38
2022-12-09T11:50:33.414Z,102948.19
2022-12-09T11:53:09.355Z,102958.31
2022-12-09T11:55:47.032Z,102955.69
2022-12-09T11:58:20.719Z,102967.22
2022-12-09T12:00:49.929Z,102969.59
2022-12-09T12:03:35.214Z,102969.47
2022-12-09T12:06:08.930Z,102971.69
2022-12-09T12:08:46.755Z,102967.44
2022-12-09T12:11:29.433Z,102961.81
2022-12-09T12:14:12.743Z,102962.56
2022-12-09T12:17:05.652Z,102960.84
2022-12-09T12:19:40.204Z,102963.38
2022-12-09T12:22:37.972Z,102958.41
2022-12-09T12:25:40.724Z,102968.91
2022-12-09T12:28:30.962Z,102972.84
2022-12-09T12:31:24.051Z,102964.81
2022-12-09T12:37:07.278Z,102972.78
2022-12-09T12:39:44.342Z,102972.50
2022-12-09T12:42:24.343Z,102969.69
2022-12-09T12:45:20.802Z,102971.78
2022-12-09T12:48:02.554Z,102973.06
2022-12-09T12:50:39.780Z,102972.78
2022-12-09T12:53:36.685Z,102979.28
2022-12-09T12:56:32.046Z,102973.69
2022-12-09T12:59:11.987Z,102970.34
2022-12-09T13:01:39.818Z,102971.13
2022-12-09T13:04:15.078Z,102966.81
2022-12-09T13:06:55.338Z,102971.75
2022-12-09T13:09:26.487Z,102966.31
2022-12-09T13:12:48.581Z,102966.13
2022-12-09T13:15:20.555Z,102964.78
2022-12-09T13:17:49.802Z,102960.03
2022-12-09T13:20:23.438Z,102951.56
2022-12-09T13:23:36.030Z,102956.31
2022-12-09T13:26:13.390Z,102969.63
2022-12-09T13:28:55.083Z,102960.97
2022-12-09T13:31:30.108Z,102961.09
2022-12-09T13:34:20.707Z,102962.94
2022-12-09T13:36:49.586Z,102962.03
2022-12-09T13:39:35.705Z,102954.19
2022-12-09T13:42:21.959Z,102958.28
2022-12-09T13:44:49.794Z,102948.59
2022-12-09T13:47:34.529Z,102952.91
2022-12-09T13:50:16.600Z,102950.88
2022-12-09T13:52:48.946Z,102941.66
2022-12-09T13:55:29.364Z,102950.28
2022-12-09T13:58:31.066Z,102942.25
2022-12-09T14:01:04.959Z,102943.84
2022-12-09T14:04:01.575Z,102943.22
2022-12-09T14:06:47.520Z,102951.06
2022-12-09T14:09:40.257Z,102951.84
2022-12-09T14:12:12.078Z,102947.78
2022-12-09T14:14:54.093Z,102950.91
2022-12-09T14:17:29.018Z,102949.88
2022-12-09T14:20:21.581Z,102954.84
2022-12-09T14:23:12.951Z,102963.16
2022-12-09T14:26:00.357Z,102954.78
2022-12-09T14:28:34.142Z,102955.19
2022-12-09T14:31:08.097Z,102951.97
2022-12-09T14:36:28.865Z,102965.44
2022-12-09T14:39:25.332Z,102969.91
2022-12-09T14:42:06.035Z,102963.06
2022-12-09T14:45:03.658Z,102977.06
2022-12-09T14:47:38.693Z,102972.47
2022-12-09T14:50:28.305Z,102971.03
2022-12-09T14:53:03.170Z,102960.41
2022-12-09T14:55:35.227Z,102959.22
2022-12-09T14:58:03.488Z,102968.91
2022-12-09T15:00:31.593Z,102966.44
2022-12-09T15:03:31.390Z,102970.63
2022-12-09T15:06:18.324Z,102960.75
2022-12-09T15:08:53.505Z,102960.97
2022-12-09T15:11:41.156Z,102964.38
2022-12-09T15:14:27.745Z,102955.16
2022-12-09T15:16:57.301Z,102959.44
2022-12-09T15:19:59.054Z,102963.56
2022-12-09T15:22:24.407Z,102963.75
2022-12-09T15:24:53.029Z,102967.53
2022-12-09T15:27:22.100Z,102957.75
2022-12-09T15:29:50.518Z,102953.41
2022-12-09T15:32:27.975Z,102958.66
2022-12-09T15:34:56.080Z,102962.28
2022-12-09T15:37:27.597Z,102949.44
2022-12-09T15:40:03.367Z,102952.19
2022-12-09T15:42:34.479Z,102935.66
2022-12-09T15:45:08.820Z,102937.44
2022-12-09T15:48:02.508Z,102957.69
2022-12-09T15:50:42.261Z,102965.69
2022-12-09T15:53:55.913Z,102965.13
2022-12-09T15:56:23.609Z,102966.25
2022-12-09T15:58:57.169Z,102960.69
2022-12-09T16:01:34.255Z,102959.56
2022-12-09T16:04:03.723Z,102966.75
2022-12-09T16:06:35.194Z,102956.59
2022-12-09T16:09:11.594Z,102957.47
2022-12-09T16:11:45.979Z,102959.56
2022-12-09T16:14:14.157Z,102947.84
2022-12-09T16:16:50.602Z,102965.25
2022-12-09T16:19:42.154Z,102953.28
2022-12-09T16:22:15.695Z,102959.22
2022-12-09T16:25:13.694Z,102953.47
2022-12-09T16:27:43.359Z,102958.31
2022-12-09T16:30:17.585Z,102951.59
2022-12-09T16:33:05.277Z,102951.44
2022-12-09T16:35:45.650Z,102952.38
2022-12-09T16:38:19.455Z,102947.75
2022-12-09T16:40:46.750Z,102947.00
2022-12-09T16:43:25.991Z,102950.16
2022-12-09T16:46:14.722Z,102943.25
2022-12-09T16:48:42.991Z,102953.03
2022-12-09T16:51:13.494Z,102944.78
2022-12-09T16:53:50.369Z,102951.31
2022-12-09T16:56:26.092Z,102947.03
2022-12-09T16:58:54.809Z,102942.44
2022-12-09T17:01:27.716Z,102942.53
2022-12-09T17:04:23.822Z,102943.44
2022-12-09T17:06:51.587Z,102945.16
2022-12-09T17:09:19.447Z,102942.94
2022-12-09T17:11:49.186Z,102933.78
2022-12-09T17:14:18.163Z,102942.44
2022-12-09T17:16:45.503Z,102934.75
2022-12-09T17:19:13.592Z,102927.97
2022-12-09T17:21:41.352Z,102932.81
2022-12-09T17:24:12.026Z,102929.31
2022-12-09T17:26:39.622Z,102939.63
2022-12-09T17:29:07.561Z,102934.84
2022-12-09T17:31:35.281Z,102932.78
2022-12-09T17:34:02.688Z,102929.09
2022-12-09T17:36:30.219Z,102935.63
2022-12-09T17:39:02.708Z,102931.38
2022-12-09T17:41:30.546Z,102931.38
2022-12-09T17:43:59.981Z,102932.41
2022-12-09T17:46:27.593Z,102934.34
2022-12-09T17:48:55.071Z,102928.56
2022-12-09T17:51:22.874Z,102924.19
2022-12-09T17:53:50.960Z,102920.34
2022-12-09T17:56:21.464Z,102927.25
2022-12-09T17:59:00.140Z,102925.09
2022-12-09T18:01:27.758Z,102918.72
2022-12-09T18:04:04.447Z,102924.16
2022-12-09T18:06:36.385Z,102934.47
2022-12-09T18:09:09.164Z,102930.41
2022-12-09T18:11:37.153Z,102935.66
2022-12-09T18:14:05.531Z,102927.09
2022-12-09T18:16:33.451Z,102930.38
2022-12-09T18:19:06.877Z,102921.25
2022-12-09T18:21:35.601Z,102918.53
2022-12-09T18:24:03.485Z,102924.53
2022-12-09T18:26:34.153Z,102921.22
2022-12-09T18:29:05.898Z,102919.25
2022-12-09T18:31:33.487Z,102920.88
2022-12-09T18:34:01.014Z,102914.94
2022-12-09T18:36:29.925Z,102915.50
2022-12-09T18:39:00.640Z,102913.13
2022-12-09T18:41:30.571Z,102904.16
2022-12-09T18:44:01.110Z,102895.13
2022-12-09T18:46:31.972Z,102905.22
2022-12-09T18:49:08.549Z,102901.31
2022-12-09T18:51:36.742Z,102901.66
2022-12-09T18:54:05.479Z,102900.47
2022-12-09T18:59:22.373Z,102909.13
2022-12-09T19:01:50.140Z,102900.00
2022-12-09T19:04:27.007Z,102898.56
2022-12-09T19:06:57.666Z,102892.47
2022-12-09T19:09:30.334Z,102891.09
2022-12-09T19:12:01.067Z,102889.28
2022-12-09T19:14:41.169Z,102876.59
2022-12-09T19:17:08.600Z,102892.91
2022-12-09T19:19:36.129Z,102889.63
2022-12-09T19:22:04.621Z,102883.66
2022-12-09T19:24:34.201Z,102897.22
2022-12-09T19:27:04.001Z,102888.72
2022-12-09T19:29:31.400Z,102892.19
2022-12-09T19:31:58.898Z,102900.44
2022-12-09T19:34:29.132Z,102896.75
2022-12-09T19:36:59.361Z,102895.03
2022-12-09T19:39:32.081Z,102902.97
2022-12-09T19:42:00.072Z,102899.59
2022-12-09T19:44:59.508Z,102897.31
2022-12-09T19:47:16.550Z,102902.22
2022-12-09T19:49:44.744Z,102906.56
2022-12-09T19:52:12.762Z,102880.06
2022-12-09T19:54:40.522Z,102894.91
2022-12-09T19:57:08.217Z,102893.66
2022-12-09T19:59:36.202Z,102904.50
2022-12-09T20:02:03.741Z,102902.88
2022-12-09T20:07:20.224Z,102917.97
2022-12-09T20:09:58.349Z,102921.94
2022-12-09T20:12:25.814Z,102920.34
2022-12-09T20:14:53.136Z,102921.03
2022-12-09T20:17:20.677Z,102924.38
2022-12-09T20:19:48.155Z,102910.44
2022-12-09T20:22:15.725Z,102915.69
2022-12-09T20:24:44.258Z,102915.34
2022-12-09T20:27:11.891Z,102914.78
2022-12-09T20:29:39.250Z,102900.28
2022-12-09T20:32:09.100Z,102904.28
2022-12-09T20:34:36.637Z,102901.09
2022-12-09T20:37:05.176Z,102915.41
2022-12-09T20:39:32.565Z,102904.69
2022-12-09T20:42:00.216Z,102907.13
2022-12-09T20:44:27.619Z,102919.72
2022-12-09T20:46:55.097Z,102922.09
2022-12-09T20:49:26.875Z,102914.53
2022-12-09T20:51:55.508Z,102925.97
2022-12-09T20:54:23.513Z,102924.88
2022-12-09T20:56:51.373Z,102924.00
2022-12-09T20:59:18.912Z,102917.34
2022-12-09T21:01:47.553Z,102922.25
2022-12-09T21:04:15.775Z,102917.63
2022-12-09T21:06:43.373Z,102917.78
2022-12-09T21:09:15.116Z,102912.97
2022-12-09T21:11:42.683Z,102908.06
2022-12-09T21:14:11.484Z,102905.50
2022-12-09T21:16:41.954Z,102908.66
2022-12-09T21:19:13.533Z,102908.09
2022-12-09T21:21:44.030Z,102904.78
2022-12-09T21:24:12.263Z,102899.50
2022-12-09T21:26:40.733Z,102896.22
2022-12-09T21:29:10.050Z,102903.34
2022-12-09T21:31:41.273Z,102894.28
2022-12-09T21:34:10.574Z,102902.31
2022-12-09T21:36:40.802Z,102910.69
2022-12-09T21:39:09.448Z,102907.72
2022-12-09T21:41:37.915Z,102901.72
2022-12-09T21:44:06.629Z,102905.22
2022-12-09T21:46:35.361Z,102901.28
2022-12-09T21:49:04.705Z,102901.72
2022-12-09T21:51:34.080Z,102908.16
2022-12-09T21:54:02.181Z,102906.72
2022-12-09T21:56:31.757Z,102900.19
2022-12-09T21:59:00.244Z,102895.28
2022-12-09T22:01:30.955Z,102906.03
2022-12-09T22:04:00.312Z,102901.28
2022-12-09T22:06:29.716Z,102901.13
2022-12-09T22:08:59.999Z,102897.13
2022-12-09T22:11:32.310Z,102898.97
2022-12-09T22:14:01.513Z,102899.75
2022-12-09T22:16:32.602Z,102896.19
2022-12-09T22:19:01.642Z,102895.91
2022-12-09T22:21:30.693Z,102900.09
2022-12-09T22:24:04.234Z,102895.34
2022-12-09T22:26:32.504Z,102897.03
2022-12-09T22:29:01.848Z,102900.41
2022-12-09T22:31:32.443Z,102903.19
2022-12-09T22:34:03.260Z,102895.56
2022-12-09T22:36:31.625Z,102889.97
2022-12-09T22:38:59.078Z,102900.34
2022-12-09T22:41:28.472Z,102897.25
2022-12-09T22:43:56.683Z,102900.44
2022-12-09T22:46:27.890Z,102902.88
2022-12-09T22:48:57.729Z,102902.94
2022-12-09T22:51:27.991Z,102898.16
2022-12-09T22:53:57.562Z,102892.88
2022-12-09T22:56:26.017Z,102884.66
2022-12-09T22:58:53.702Z,102888.03
2022-12-09T23:01:24.541Z,102884.53
2022-12-09T23:03:52.533Z,102887.25
2022-12-09T23:06:20.094Z,102894.44
2022-12-09T23:08:47.827Z,102889.28
2022-12-09T23:11:18.191Z,102879.41
2022-12-09T23:13:46.469Z,102896.13
2022-12-09T23:16:19.904Z,102879.00
2022-12-09T23:18:48.074Z,102897.28
2022-12-09T23:21:19.635Z,102894.72
2022-12-09T23:23:47.650Z,102893.88
2022-12-09T23:26:19.284Z,102889.75
2022-12-09T23:28:49.271Z,102895.03
2022-12-09T23:31:18.987Z,102895.81
2022-12-09T23:33:47.860Z,102894.03
2022-12-09T23:36:20.880Z,102888.69
2022-12-09T23:38:49.964Z,102895.63
2022-12-09T23:41:19.676Z,102891.22
2022-12-09T23:43:49.066Z,102892.22
2022-12-09T23:46:19.765Z,102884.47
2022-12-09T23:48:49.049Z,102888.16
2022-12-09T23:51:18.318Z,102891.28
2022-12-09T23:53:47.494Z,102891.66
2022-12-09T23:56:15.844Z,102894.34
2022-12-09T23:58:43.527Z,102879.94
